createdAt,value
2022-11-26T00:02:27.030Z,99786.06
2022-11-26T00:05:00.662Z,99782.72
2022-11-26T00:07:34.127Z,99779.98
2022-11-26T00:10:09.659Z,99784.33
2022-11-26T00:12:41.913Z,99781.56
2022-11-26T00:15:19.571Z,99778.26
2022-11-26T00:17:52.817Z,99783.02
2022-11-26T00:20:30.365Z,99782.36
2022-11-26T00:23:04.516Z,99779.55
2022-11-26T00:25:42.742Z,99780.02
2022-11-26T00:28:28.453Z,99778.80
2022-11-26T00:31:02.729Z,99779.02
2022-11-26T00:33:34.587Z,99782.86
2022-11-26T00:36:16.734Z,99783.07
2022-11-26T00:38:51.405Z,99784.61
2022-11-26T00:41:26.145Z,99785.13
2022-11-26T00:43:58.791Z,99790.14
2022-11-26T00:46:30.570Z,99785.54
2022-11-26T00:49:02.387Z,99787.90
2022-11-26T00:51:34.286Z,99791.95
2022-11-26T00:54:07.394Z,99793.39
2022-11-26T00:56:41.106Z,99793.72
2022-11-26T00:59:15.426Z,99790.88
2022-11-26T01:01:47.343Z,99790.77
2022-11-26T01:04:19.377Z,99789.38
2022-11-26T01:06:51.548Z,99790.08
2022-11-26T01:09:23.981Z,99787.10
2022-11-26T01:11:55.848Z,99782.85
2022-11-26T01:14:27.616Z,99779.67
2022-11-26T01:16:59.727Z,99777.85
2022-11-26T01:19:31.979Z,99777.96
2022-11-26T01:22:03.727Z,99776.16
2022-11-26T01:24:35.790Z,99776.80
2022-11-26T01:27:12.234Z,99781.64
2022-11-26T01:29:44.403Z,99789.13
2022-11-26T01:32:16.166Z,99789.65
2022-11-26T01:34:47.900Z,99793.96
2022-11-26T01:37:19.653Z,99793.98
2022-11-26T01:39:51.385Z,99794.52
2022-11-26T01:42:35.894Z,99792.12
2022-11-26T01:45:18.274Z,99794.46
2022-11-26T01:47:50.267Z,99796.38
2022-11-26T01:51:00.828Z,99795.64
2022-11-26T01:53:46.809Z,99803.42
2022-11-26T01:56:28.721Z,99801.30
2022-11-26T01:59:05.978Z,99797.80
2022-11-26T02:01:37.967Z,99803.61
2022-11-26T02:04:16.575Z,99801.88
2022-11-26T02:06:51.061Z,99799.86
2022-11-26T02:09:23.470Z,99799.46
2022-11-26T02:11:55.277Z,99799.80
2022-11-26T02:14:31.273Z,99800.71
2022-11-26T02:17:14.983Z,99806.27
2022-11-26T02:20:12.482Z,99809.52
2022-11-26T02:23:10.186Z,99812.34
2022-11-26T02:26:04.000Z,99818.42
2022-11-26T02:29:03.214Z,99820.86
2022-11-26T02:31:41.810Z,99813.48
2022-11-26T02:34:19.432Z,99817.02
2022-11-26T02:36:56.627Z,99821.49
2022-11-26T02:39:30.893Z,99819.09
2022-11-26T02:42:04.467Z,99820.02
2022-11-26T02:44:43.736Z,99816.39
2022-11-26T02:47:19.435Z,99812.39
2022-11-26T02:49:53.243Z,99810.48
2022-11-26T02:52:26.855Z,99810.69
2022-11-26T02:55:00.531Z,99812.74
2022-11-26T02:57:36.246Z,99817.56
2022-11-26T03:00:10.534Z,99828.30
2022-11-26T03:02:47.246Z,99828.09
2022-11-26T03:05:20.859Z,99828.40
2022-11-26T03:07:55.339Z,99827.11
2022-11-26T03:10:30.096Z,99826.80
2022-11-26T03:13:02.363Z,99826.89
2022-11-26T03:15:34.088Z,99829.61
2022-11-26T03:18:06.038Z,99829.77
2022-11-26T03:20:37.931Z,99826.64
2022-11-26T03:23:09.721Z,99830.30
2022-11-26T03:25:41.793Z,99835.17
2022-11-26T03:28:13.560Z,99832.14
2022-11-26T03:30:45.362Z,99837.11
2022-11-26T03:33:17.097Z,99835.45
2022-11-26T03:35:50.915Z,99835.83
2022-11-26T03:38:22.870Z,99838.78
2022-11-26T03:41:00.654Z,99839.80
2022-11-26T03:43:32.438Z,99841.59
2022-11-26T03:46:04.232Z,99838.38
2022-11-26T03:48:36.091Z,99838.45
2022-11-26T03:51:08.419Z,99838.73
2022-11-26T03:53:40.337Z,99837.43
2022-11-26T03:56:12.219Z,99838.45
2022-11-26T03:58:44.034Z,99843.38
2022-11-26T04:01:16.322Z,99844.61
2022-11-26T04:03:48.247Z,99845.45
2022-11-26T04:06:20.269Z,99846.20
2022-11-26T04:08:52.058Z,99849.04
2022-11-26T04:11:23.824Z,99848.31
2022-11-26T04:13:55.619Z,99848.85
2022-11-26T04:16:27.632Z,99847.58
2022-11-26T04:18:59.752Z,99848.63
2022-11-26T04:21:31.526Z,99855.08
2022-11-26T04:24:03.267Z,99858.59
2022-11-26T04:26:35.034Z,99862.23
2022-11-26T04:29:06.889Z,99864.70
2022-11-26T04:31:39.146Z,99864.45
2022-11-26T04:34:11.080Z,99868.89
2022-11-26T04:36:42.856Z,99867.23
2022-11-26T04:39:14.616Z,99871.34
2022-11-26T04:41:46.379Z,99872.30
2022-11-26T04:44:18.134Z,99872.73
2022-11-26T04:46:50.020Z,99875.11
2022-11-26T04:49:21.773Z,99876.52
2022-11-26T04:51:53.493Z,99874.66
2022-11-26T04:54:25.258Z,99872.14
2022-11-26T04:56:56.995Z,99872.80
2022-11-26T04:59:28.968Z,99875.25
2022-11-26T05:02:00.873Z,99875.02
2022-11-26T05:04:32.723Z,99872.79
2022-11-26T05:07:05.212Z,99873.33
2022-11-26T05:09:37.207Z,99876.68
2022-11-26T05:12:09.438Z,99874.49
2022-11-26T05:14:41.328Z,99870.75
2022-11-26T05:17:13.090Z,99877.30
2022-11-26T05:19:45.038Z,99882.67
2022-11-26T05:22:17.354Z,99877.48
2022-11-26T05:24:49.120Z,99881.05
2022-11-26T05:27:20.890Z,99882.12
2022-11-26T05:29:52.673Z,99882.77
2022-11-26T05:32:24.400Z,99879.91
2022-11-26T05:35:00.000Z,99882.17
2022-11-26T05:37:32.213Z,99884.73
2022-11-26T05:40:04.705Z,99889.30
2022-11-26T05:42:36.683Z,99887.22
2022-11-26T05:45:10.306Z,99889.23
2022-11-26T05:47:42.112Z,99891.79
2022-11-26T05:50:14.933Z,99893.39
2022-11-26T05:52:47.519Z,99895.58
2022-11-26T05:55:19.785Z,99897.54
2022-11-26T05:57:51.512Z,99898.73
2022-11-26T06:00:23.834Z,99905.89
2022-11-26T06:02:55.728Z,99901.60
2022-11-26T06:05:28.086Z,99906.67
2022-11-26T06:08:00.052Z,99907.36
2022-11-26T06:10:31.912Z,99911.09
2022-11-26T06:13:03.700Z,99914.95
2022-11-26T06:15:35.835Z,99917.23
2022-11-26T06:18:08.742Z,99918.12
2022-11-26T06:20:40.887Z,99918.08
2022-11-26T06:23:12.673Z,99919.63
2022-11-26T06:25:44.609Z,99927.11
2022-11-26T06:28:16.417Z,99926.60
2022-11-26T06:30:48.548Z,99931.50
2022-11-26T06:33:20.349Z,99934.84
2022-11-26T06:35:52.112Z,99936.14
2022-11-26T06:38:24.123Z,99939.67
2022-11-26T06:41:02.169Z,99941.66
2022-11-26T06:43:34.790Z,99943.94
2022-11-26T06:46:08.249Z,99946.09
2022-11-26T06:48:41.096Z,99948.83
2022-11-26T06:51:16.460Z,99946.56
2022-11-26T06:53:48.331Z,99950.18
2022-11-26T06:56:20.145Z,99956.95
2022-11-26T06:58:55.112Z,99953.10
2022-11-26T07:01:28.639Z,99951.33
2022-11-26T07:04:00.542Z,99957.19
2022-11-26T07:06:34.026Z,99959.75
2022-11-26T07:09:08.475Z,99959.02
2022-11-26T07:11:41.457Z,99962.95
2022-11-26T07:14:13.229Z,99959.86
2022-11-26T07:16:45.041Z,99958.86
2022-11-26T07:19:16.931Z,99960.80
2022-11-26T07:21:49.690Z,99964.73
2022-11-26T07:24:21.465Z,99966.19
2022-11-26T07:26:53.209Z,99968.48
2022-11-26T07:29:25.009Z,99974.14
2022-11-26T07:31:56.866Z,99976.40
2022-11-26T07:34:28.635Z,99974.86
2022-11-26T07:37:00.442Z,99978.14
2022-11-26T07:39:32.268Z,99978.30
2022-11-26T07:42:04.014Z,99975.70
2022-11-26T07:44:36.013Z,99978.45
2022-11-26T07:47:07.882Z,99986.29
2022-11-26T07:49:40.305Z,99985.17
2022-11-26T07:52:12.063Z,99985.42
2022-11-26T07:54:44.182Z,99985.66
2022-11-26T07:57:15.955Z,99988.90
2022-11-26T07:59:47.692Z,99994.38
2022-11-26T08:02:19.577Z,99992.45
2022-11-26T08:04:51.536Z,99995.98
2022-11-26T08:07:29.059Z,99994.42
2022-11-26T08:10:01.264Z,99993.92
2022-11-26T08:12:33.023Z,99994.29
2022-11-26T08:15:05.157Z,99993.71
2022-11-26T08:17:37.034Z,99998.01
2022-11-26T08:20:11.665Z,99996.65
2022-11-26T08:22:44.175Z,99996.36
2022-11-26T08:25:16.074Z,99995.09
2022-11-26T08:27:47.841Z,100004.98
2022-11-26T08:30:20.194Z,100010.72
2022-11-26T08:32:51.969Z,100018.59
2022-11-26T08:35:34.410Z,100013.87
2022-11-26T08:38:15.482Z,100014.58
2022-11-26T08:40:47.221Z,100016.05
2022-11-26T08:43:18.946Z,100024.50
2022-11-26T08:45:56.209Z,100019.96
2022-11-26T08:48:31.871Z,100020.02
2022-11-26T08:51:05.243Z,100031.91
2022-11-26T08:53:38.096Z,100032.17
2022-11-26T08:56:11.835Z,100029.60
2022-11-26T08:58:45.676Z,100036.02
2022-11-26T09:01:19.401Z,100030.73
2022-11-26T09:03:53.170Z,100038.94
2022-11-26T09:06:26.768Z,100032.89
2022-11-26T09:09:17.599Z,100030.95
2022-11-26T09:11:51.673Z,100028.39
2022-11-26T09:14:26.626Z,100034.55
2022-11-26T09:16:59.370Z,100033.84
2022-11-26T09:19:31.817Z,100035.09
2022-11-26T09:22:03.583Z,100036.45
2022-11-26T09:24:35.500Z,100039.52
2022-11-26T09:27:08.254Z,100039.60
2022-11-26T09:29:40.410Z,100037.39
2022-11-26T09:32:32.622Z,100040.59
2022-11-26T09:35:04.454Z,100042.58
2022-11-26T09:37:36.219Z,100044.66
2022-11-26T09:40:11.455Z,100038.36
2022-11-26T09:42:57.548Z,100040.22
2022-11-26T09:45:39.678Z,100040.81
2022-11-26T09:48:17.297Z,100039.15
2022-11-26T09:50:53.437Z,100035.05
2022-11-26T09:53:28.695Z,100034.13
2022-11-26T09:56:02.864Z,100034.98
2022-11-26T09:58:41.537Z,100038.02
2022-11-26T10:01:19.495Z,100039.24
2022-11-26T10:03:51.751Z,100043.69
2022-11-26T10:06:37.042Z,100041.83
2022-11-26T10:09:24.732Z,100042.14
2022-11-26T10:12:04.268Z,100047.08
2022-11-26T10:14:52.429Z,100050.23
2022-11-26T10:17:41.029Z,100053.55
2022-11-26T10:20:40.790Z,100059.84
2022-11-26T10:23:23.529Z,100058.83
2022-11-26T10:26:02.336Z,100058.17
2022-11-26T10:28:40.103Z,100062.76
2022-11-26T10:31:20.962Z,100062.06
2022-11-26T10:33:58.107Z,100063.50
2022-11-26T10:36:36.768Z,100063.90
2022-11-26T10:39:13.800Z,100064.48
2022-11-26T10:41:45.985Z,100062.36
2022-11-26T10:44:37.285Z,100059.40
2022-11-26T10:47:25.089Z,100062.55
2022-11-26T10:50:32.173Z,100054.05
2022-11-26T10:53:08.919Z,100058.25
2022-11-26T10:55:42.676Z,100055.70
2022-11-26T10:58:21.886Z,100052.80
2022-11-26T11:01:00.621Z,100049.77
2022-11-26T11:04:06.757Z,100053.52
2022-11-26T11:06:39.582Z,100054.16
2022-11-26T11:09:27.585Z,100052.38
2022-11-26T11:12:16.237Z,100055.94
2022-11-26T11:14:50.469Z,100053.95
2022-11-26T11:17:32.873Z,100053.83
2022-11-26T11:20:28.222Z,100053.37
2022-11-26T11:23:18.133Z,100057.64
2022-11-26T11:26:00.517Z,100059.53
2022-11-26T11:28:34.318Z,100054.40
2022-11-26T11:31:11.608Z,100055.98
2022-11-26T11:33:44.201Z,100059.54
2022-11-26T11:36:28.044Z,100057.52
2022-11-26T11:39:02.270Z,100062.34
2022-11-26T11:41:40.348Z,100066.53
2022-11-26T11:44:21.733Z,100066.59
2022-11-26T11:47:22.757Z,100065.15
2022-11-26T11:50:08.469Z,100062.29
2022-11-26T11:52:52.160Z,100067.27
2022-11-26T11:55:35.265Z,100066.85
2022-11-26T11:58:41.394Z,100068.69
2022-11-26T12:01:28.366Z,100065.04
2022-11-26T12:04:19.886Z,100066.81
2022-11-26T12:07:06.852Z,100065.80
2022-11-26T12:09:44.933Z,100064.18
2022-11-26T12:12:23.938Z,100060.73
2022-11-26T12:15:04.426Z,100060.54
2022-11-26T12:17:41.428Z,100057.21
2022-11-26T12:20:22.415Z,100056.52
2022-11-26T12:22:59.117Z,100049.36
2022-11-26T12:25:36.907Z,100048.80
2022-11-26T12:28:13.635Z,100049.38
2022-11-26T12:30:51.820Z,100050.94
2022-11-26T12:33:26.555Z,100049.78
2022-11-26T12:36:06.429Z,100050.52
2022-11-26T12:38:45.078Z,100050.42
2022-11-26T12:41:20.803Z,100052.01
2022-11-26T12:44:00.805Z,100051.12
2022-11-26T12:46:38.308Z,100048.10
2022-11-26T12:49:21.887Z,100049.79
2022-11-26T12:52:04.580Z,100051.03
2022-11-26T12:54:42.981Z,100048.39
2022-11-26T12:57:22.179Z,100049.89
2022-11-26T13:00:00.991Z,100050.40
2022-11-26T13:02:36.227Z,100050.40
2022-11-26T13:05:12.310Z,100047.61
2022-11-26T13:08:01.939Z,100044.67
2022-11-26T13:10:43.808Z,100045.97
2022-11-26T13:13:26.573Z,100045.80
2022-11-26T13:16:09.029Z,100045.27
2022-11-26T13:18:46.122Z,100047.19
2022-11-26T13:21:35.792Z,100051.84
2022-11-26T13:24:26.171Z,100052.98
2022-11-26T13:27:15.134Z,100055.82
2022-11-26T13:30:14.049Z,100059.74
2022-11-26T13:33:18.276Z,100062.48
2022-11-26T13:36:16.902Z,100063.73
2022-11-26T13:39:04.661Z,100067.12
2022-11-26T13:42:01.025Z,100071.63
2022-11-26T13:44:59.651Z,100069.23
2022-11-26T13:47:35.779Z,100072.93
2022-11-26T13:50:13.425Z,100075.78
2022-11-26T13:52:50.444Z,100077.23
2022-11-26T13:55:26.658Z,100081.27
2022-11-26T13:58:02.972Z,100078.17
2022-11-26T14:00:37.332Z,100082.10
2022-11-26T14:03:10.307Z,100086.80
2022-11-26T14:06:09.038Z,100084.98
2022-11-26T14:08:43.472Z,100085.80
2022-11-26T14:11:57.940Z,100083.66
2022-11-26T14:14:41.035Z,100091.06
2022-11-26T14:17:34.919Z,100096.85
2022-11-26T14:20:12.865Z,100097.72
2022-11-26T14:22:44.754Z,100093.77
2022-11-26T14:25:17.835Z,100097.48
2022-11-26T14:27:56.176Z,100095.27
2022-11-26T14:30:29.368Z,100100.93
2022-11-26T14:33:13.011Z,100104.67
2022-11-26T14:35:57.057Z,100106.29
2022-11-26T14:38:31.699Z,100110.60
2022-11-26T14:41:03.884Z,100107.00
2022-11-26T14:43:35.754Z,100107.40
2022-11-26T14:46:16.409Z,100113.15
2022-11-26T14:48:49.536Z,100111.56
2022-11-26T14:51:25.576Z,100111.73
2022-11-26T14:53:58.027Z,100114.45
2022-11-26T14:56:32.047Z,100116.45
2022-11-26T14:59:05.855Z,100117.60
2022-11-26T15:01:37.935Z,100118.87
2022-11-26T15:04:23.365Z,100126.00
2022-11-26T15:06:55.483Z,100129.81
2022-11-26T15:09:29.465Z,100125.80
2022-11-26T15:12:09.342Z,100128.16
2022-11-26T15:14:45.005Z,100128.66
2022-11-26T15:17:20.444Z,100128.62
2022-11-26T15:19:54.164Z,100134.60
2022-11-26T15:22:34.636Z,100137.42
2022-11-26T15:25:13.707Z,100140.73
2022-11-26T15:27:55.561Z,100140.19
2022-11-26T15:30:30.387Z,100142.32
2022-11-26T15:33:13.029Z,100143.22
2022-11-26T15:35:44.941Z,100141.25
2022-11-26T15:38:18.702Z,100141.93
2022-11-26T15:40:53.214Z,100141.40
2022-11-26T15:43:30.831Z,100146.09
2022-11-26T15:46:06.233Z,100144.94
2022-11-26T15:48:51.982Z,100145.61
2022-11-26T15:51:35.411Z,100149.30
2022-11-26T15:54:19.563Z,100150.20
2022-11-26T15:56:56.348Z,100151.69
2022-11-26T15:59:29.979Z,100152.47
2022-11-26T16:02:15.070Z,100149.90
2022-11-26T16:04:50.394Z,100153.13
2022-11-26T16:07:24.224Z,100159.98
2022-11-26T16:10:21.436Z,100160.02
2022-11-26T16:13:23.693Z,100161.89
2022-11-26T16:16:01.243Z,100162.12
2022-11-26T16:18:38.503Z,100164.21
2022-11-26T16:21:18.942Z,100163.00
2022-11-26T16:23:59.592Z,100165.05
2022-11-26T16:26:32.573Z,100166.44
2022-11-26T16:29:10.006Z,100163.08
2022-11-26T16:31:42.613Z,100160.09
2022-11-26T16:34:14.513Z,100156.35
2022-11-26T16:36:46.766Z,100159.86
2022-11-26T16:39:19.801Z,100163.70
2022-11-26T16:41:51.567Z,100168.08
2022-11-26T16:44:23.794Z,100170.05
2022-11-26T16:46:56.022Z,100169.72
2022-11-26T16:49:30.137Z,100167.45
2022-11-26T16:52:02.070Z,100166.70
2022-11-26T16:54:33.838Z,100169.65
2022-11-26T16:57:05.906Z,100169.79
2022-11-26T16:59:38.198Z,100168.00
2022-11-26T17:02:17.684Z,100170.14
2022-11-26T17:04:50.019Z,100174.68
2022-11-26T17:07:25.694Z,100172.11
2022-11-26T17:09:58.759Z,100169.77
2022-11-26T17:12:30.744Z,100173.64
2022-11-26T17:15:02.593Z,100174.19
2022-11-26T17:17:34.819Z,100179.03
2022-11-26T17:20:12.518Z,100175.81
2022-11-26T17:22:45.461Z,100175.38
2022-11-26T17:25:17.686Z,100172.84
2022-11-26T17:27:49.482Z,100169.61
2022-11-26T17:30:24.791Z,100169.44
2022-11-26T17:32:57.257Z,100172.24
2022-11-26T17:35:29.529Z,100171.80
2022-11-26T17:38:01.357Z,100170.05
2022-11-26T17:40:33.451Z,100169.36
2022-11-26T17:43:05.180Z,100172.30
2022-11-26T17:45:37.439Z,100169.17
2022-11-26T17:48:11.470Z,100172.02
2022-11-26T17:50:44.044Z,100170.30
2022-11-26T17:53:15.940Z,100172.61
2022-11-26T17:55:49.870Z,100175.65
2022-11-26T17:58:21.857Z,100176.57
2022-11-26T18:00:54.014Z,100178.71
2022-11-26T18:03:26.568Z,100177.85
2022-11-26T18:05:58.358Z,100179.37
2022-11-26T18:08:30.282Z,100179.88
2022-11-26T18:11:02.266Z,100177.51
2022-11-26T18:13:34.628Z,100177.21
2022-11-26T18:16:07.192Z,100177.60
2022-11-26T18:18:39.357Z,100180.99
2022-11-26T18:21:11.747Z,100181.00
2022-11-26T18:23:47.954Z,100182.36
2022-11-26T18:26:21.315Z,100182.69
2022-11-26T18:28:53.464Z,100182.30
2022-11-26T18:31:25.814Z,100182.85
2022-11-26T18:33:57.942Z,100184.81
2022-11-26T18:36:32.592Z,100186.27
2022-11-26T18:39:05.394Z,100190.08
2022-11-26T18:41:37.412Z,100192.73
2022-11-26T18:44:09.926Z,100193.61
2022-11-26T18:46:42.417Z,100191.40
2022-11-26T18:49:14.554Z,100194.27
2022-11-26T18:51:49.041Z,100198.98
2022-11-26T18:54:20.974Z,100208.63
2022-11-26T18:56:53.292Z,100211.42
2022-11-26T18:59:25.110Z,100215.52
2022-11-26T19:01:57.032Z,100211.33
2022-11-26T19:04:29.882Z,100212.48
2022-11-26T19:07:02.370Z,100209.33
2022-11-26T19:09:34.122Z,100208.39
2022-11-26T19:12:06.500Z,100206.95
2022-11-26T19:14:38.694Z,100208.83
2022-11-26T19:17:11.470Z,100213.39
2022-11-26T19:19:43.331Z,100214.23
2022-11-26T19:22:15.287Z,100216.14
2022-11-26T19:24:48.775Z,100219.05
2022-11-26T19:27:20.564Z,100224.54
2022-11-26T19:29:53.185Z,100226.80
2022-11-26T19:32:25.550Z,100230.19
2022-11-26T19:35:02.634Z,100237.61
2022-11-26T19:37:37.339Z,100238.79
2022-11-26T19:40:11.533Z,100239.95
2022-11-26T19:42:43.628Z,100242.70
2022-11-26T19:45:15.514Z,100243.27
2022-11-26T19:47:47.278Z,100247.75
2022-11-26T19:50:19.622Z,100250.42
2022-11-26T19:52:51.400Z,100256.48
2022-11-26T19:55:23.764Z,100257.80
2022-11-26T19:57:55.756Z,100262.02
2022-11-26T20:00:27.681Z,100263.25
2022-11-26T20:02:59.526Z,100263.30
2022-11-26T20:05:31.676Z,100266.58
2022-11-26T20:08:04.178Z,100269.20
2022-11-26T20:10:37.698Z,100271.96
2022-11-26T20:13:10.789Z,100275.23
2022-11-26T20:15:47.473Z,100274.14
2022-11-26T20:18:19.226Z,100274.70
2022-11-26T20:21:01.151Z,100277.68
2022-11-26T20:23:33.707Z,100282.64
2022-11-26T20:26:14.233Z,100282.23
2022-11-26T20:28:46.420Z,100286.88
2022-11-26T20:31:23.373Z,100282.15
2022-11-26T20:33:56.640Z,100285.52
2022-11-26T20:36:28.575Z,100287.15
2022-11-26T20:39:02.799Z,100292.20
2022-11-26T20:41:35.049Z,100293.77
2022-11-26T20:44:07.157Z,100298.65
2022-11-26T20:46:39.434Z,100303.77
2022-11-26T20:49:12.314Z,100310.35
2022-11-26T20:51:44.472Z,100312.10
2022-11-26T20:54:16.273Z,100315.78
2022-11-26T20:56:48.431Z,100321.55
2022-11-26T20:59:20.243Z,100325.39
2022-11-26T21:01:52.814Z,100324.40
2022-11-26T21:04:24.875Z,100328.91
2022-11-26T21:06:56.946Z,100328.93
2022-11-26T21:09:28.735Z,100324.45
2022-11-26T21:12:00.884Z,100325.19
2022-11-26T21:14:33.117Z,100323.23
2022-11-26T21:17:05.146Z,100324.73
2022-11-26T21:19:37.440Z,100320.11
2022-11-26T21:22:10.655Z,100322.43
2022-11-26T21:24:42.740Z,100327.09
2022-11-26T21:27:14.654Z,100322.58
2022-11-26T21:29:46.633Z,100330.80
2022-11-26T21:32:18.528Z,100329.02
2022-11-26T21:34:50.465Z,100326.95
2022-11-26T21:37:22.726Z,100330.02
2022-11-26T21:39:54.473Z,100331.79
2022-11-26T21:42:26.422Z,100335.17
2022-11-26T21:44:58.211Z,100334.30
2022-11-26T21:47:30.473Z,100338.84
2022-11-26T21:50:02.241Z,100341.45
2022-11-26T21:52:34.193Z,100340.52
2022-11-26T21:55:06.628Z,100343.03
2022-11-26T21:57:38.661Z,100346.16
2022-11-26T22:00:12.634Z,100351.80
2022-11-26T22:02:44.601Z,100355.39
2022-11-26T22:05:17.013Z,100356.98
2022-11-26T22:07:49.236Z,100362.16
2022-11-26T22:10:21.553Z,100359.45
2022-11-26T22:12:53.411Z,100360.67
2022-11-26T22:15:25.387Z,100363.75
2022-11-26T22:17:57.517Z,100359.27
2022-11-26T22:20:29.309Z,100362.22
2022-11-26T22:23:01.223Z,100361.66
2022-11-26T22:25:34.978Z,100366.88
2022-11-26T22:28:07.915Z,100372.91
2022-11-26T22:30:40.226Z,100375.74
2022-11-26T22:33:15.156Z,100377.41
2022-11-26T22:35:46.946Z,100374.82
2022-11-26T22:38:19.156Z,100376.58
2022-11-26T22:40:50.997Z,100378.30
2022-11-26T22:43:22.791Z,100385.13
2022-11-26T22:45:55.249Z,100388.95
2022-11-26T22:48:27.164Z,100391.67
2022-11-26T22:50:58.922Z,100393.95
2022-11-26T22:53:31.477Z,100391.02
2022-11-26T22:56:04.361Z,100391.94
2022-11-26T22:58:37.132Z,100395.12
2022-11-26T23:01:10.287Z,100396.36
2022-11-26T23:03:42.196Z,100396.20
2022-11-26T23:06:15.577Z,100401.67
2022-11-26T23:08:48.293Z,100400.79
2022-11-26T23:11:22.525Z,100398.43
2022-11-26T23:13:54.700Z,100401.65
2022-11-26T23:16:50.055Z,100406.17
2022-11-26T23:19:22.300Z,100407.89
2022-11-26T23:21:54.134Z,100412.66
2022-11-26T23:24:27.012Z,100415.55
2022-11-26T23:26:59.191Z,100417.89
2022-11-26T23:29:31.080Z,100419.77
2022-11-26T23:32:02.962Z,100420.63
2022-11-26T23:34:34.681Z,100418.63
2022-11-26T23:37:06.405Z,100421.55
2022-11-26T23:39:38.390Z,100423.52
2022-11-26T23:42:10.425Z,100425.67
2022-11-26T23:44:42.567Z,100424.42
2022-11-26T23:47:14.318Z,100426.00
2022-11-26T23:49:46.074Z,100426.73
2022-11-26T23:52:17.897Z,100430.41
2022-11-26T23:54:49.680Z,100431.88
2022-11-26T23:57:21.960Z,100435.09
2022-11-26T23:59:53.680Z,100439.42
